Disclaimer

Please do not use the information listed here in-flight or in-navigation, as they are not provided to us by the airports but are provided by volunteers, so they might be outdated.

Search


Regions


Airport information page

Radio informations:
RDO - 5637 MHz

Airport informations:
Latitude: 38° 55' 31.68" N
Longitude: 020° 45' 55.12" E
Elevation: 11 feet - 3 meters
Operating hours: Remarks
Operating agency: Military
Timezone: UTC+2(+3DT) - Last Sunday in March to last Sunday in October
Fuel: Jet A1, without icing nhibitor.

JP-8, SemiKeroscene MIL Spec T-83133, without icing inhibitor

115/145 octane gasoline, leaded, MIL-L-5572F (PURPLE)

100/130 MIL Spec, low lead, aviation gasoline (BLUE)

Runway information:
07L/25R - 9419 x 148 feet< - >2871 x 45 meters

Recent METARs:
LGPZ 210620Z VRB03KT 9999 FEW020 13/12 Q1013
LGPZ 210650Z 05004KT 9999 -RA SCT020 14/12 Q1013 RMK SCT080 BLU
LGPZ 210720Z 04006KT 9999 -RA SCT020 BKN070 15/13 Q1013

Airport on the map: